createdAt,value
2023-03-29T00:00:17.755Z,100650.16
2023-03-29T00:02:25.271Z,100647.11
2023-03-29T00:04:32.173Z,100648.16
2023-03-29T00:06:38.994Z,100648.73
2023-03-29T00:08:46.319Z,100651.12
2023-03-29T00:10:52.803Z,100650.25
2023-03-29T00:12:59.105Z,100646.74
2023-03-29T00:15:06.022Z,100649.72
2023-03-29T00:17:13.183Z,100652.3
2023-03-29T00:19:20.403Z,100649.8
2023-03-29T00:21:26.993Z,100646.58
2023-03-29T00:23:33.465Z,100649.36
2023-03-29T00:25:40.666Z,100652.11
2023-03-29T00:27:47.680Z,100650.22
2023-03-29T00:29:53.993Z,100648.94
2023-03-29T00:32:01.026Z,100649.08
2023-03-29T00:34:07.937Z,100646.75
2023-03-29T00:36:14.476Z,100649.16
2023-03-29T00:38:20.865Z,100648.22
2023-03-29T00:40:27.517Z,100646.92
2023-03-29T00:42:34.144Z,100640.91
2023-03-29T00:44:41.149Z,100643.23
2023-03-29T00:46:47.884Z,100639.84
2023-03-29T00:48:54.915Z,100644.57
2023-03-29T00:51:02.270Z,100645.21
2023-03-29T00:53:12.167Z,100640.77
2023-03-29T00:55:18.770Z,100642.46
2023-03-29T00:57:28.056Z,100645.06
2023-03-29T00:59:34.539Z,100645.27
2023-03-29T01:01:41.208Z,100643.77
2023-03-29T01:03:48.746Z,100641.41
2023-03-29T01:05:55.624Z,100640.78
2023-03-29T01:08:02.611Z,100641.52
2023-03-29T01:10:09.388Z,100645.18
2023-03-29T01:12:16.363Z,100641.1
2023-03-29T01:14:22.964Z,100639.02
2023-03-29T01:16:29.315Z,100641.61
2023-03-29T01:18:36.042Z,100637.15
2023-03-29T01:20:42.248Z,100640.66
2023-03-29T01:22:48.441Z,100642.67
2023-03-29T01:24:55.408Z,100641.13
2023-03-29T01:27:01.572Z,100646.98
2023-03-29T01:29:08.377Z,100651.23
2023-03-29T01:31:15.023Z,100651.53
2023-03-29T01:33:21.632Z,100643.2
2023-03-29T01:35:29.042Z,100647.03
2023-03-29T01:37:35.565Z,100644.38
2023-03-29T01:39:42.511Z,100645.08
2023-03-29T01:41:48.945Z,100646
2023-03-29T01:43:55.118Z,100646.23
2023-03-29T01:46:02.378Z,100649.98
2023-03-29T01:48:09.359Z,100647.39
2023-03-29T01:50:15.680Z,100653.41
2023-03-29T01:52:22.559Z,100652.53
2023-03-29T01:54:29.148Z,100660.52
2023-03-29T01:56:35.443Z,100654.69
2023-03-29T01:58:42.411Z,100653.39
2023-03-29T02:00:50.216Z,100651.75
2023-03-29T02:02:57.171Z,100649.76
2023-03-29T02:05:04.981Z,100645.8
2023-03-29T02:07:11.500Z,100645.61
2023-03-29T02:09:17.840Z,100648.41
2023-03-29T02:11:24.842Z,100646.49
2023-03-29T02:13:31.861Z,100649.13
2023-03-29T02:15:38.970Z,100652.18
2023-03-29T02:17:45.917Z,100658.13
2023-03-29T02:19:52.967Z,100656.69
2023-03-29T02:21:59.638Z,100659.7
2023-03-29T02:24:06.195Z,100656.7
2023-03-29T02:26:13.304Z,100648.55
2023-03-29T02:28:19.963Z,100656.27
2023-03-29T02:30:26.515Z,100654.79
2023-03-29T02:32:33.724Z,100658.61
2023-03-29T02:34:40.845Z,100656.25
2023-03-29T02:36:47.185Z,100657.75
2023-03-29T02:38:54.104Z,100656.24
2023-03-29T02:41:01.068Z,100661.59
2023-03-29T02:43:08.342Z,100657.3
2023-03-29T02:45:14.727Z,100658.17
2023-03-29T02:47:21.065Z,100656.03
2023-03-29T02:49:28.134Z,100656.89
2023-03-29T02:51:34.675Z,100660.36
2023-03-29T02:53:40.756Z,100658.72
2023-03-29T02:55:48.018Z,100660.52
2023-03-29T02:57:54.511Z,100663.27
2023-03-29T03:00:01.684Z,100664.92
2023-03-29T03:02:08.386Z,100669.03
2023-03-29T03:04:15.621Z,100669.11
2023-03-29T03:06:22.642Z,100670.47
2023-03-29T03:08:29.450Z,100673.33
2023-03-29T03:10:36.287Z,100667.36
2023-03-29T03:12:42.899Z,100672.83
2023-03-29T03:14:51.182Z,100674.78
2023-03-29T03:16:57.948Z,100677.62
2023-03-29T03:19:09.684Z,100676.53
2023-03-29T03:21:16.038Z,100674.92
2023-03-29T03:23:22.618Z,100680.06
2023-03-29T03:25:29.806Z,100680.95
2023-03-29T03:27:35.780Z,100680.3
2023-03-29T03:29:42.636Z,100682.7
2023-03-29T03:31:49.545Z,100682.09
2023-03-29T03:33:59.165Z,100685.42
2023-03-29T03:36:05.590Z,100683.05
2023-03-29T03:38:12.568Z,100690.13
2023-03-29T03:40:19.974Z,100686.56
2023-03-29T03:42:29.018Z,100687.55
2023-03-29T03:44:35.519Z,100688.57
2023-03-29T03:46:41.964Z,100692.65
2023-03-29T03:48:49.301Z,100692.77
2023-03-29T03:50:56.230Z,100690.48
2023-03-29T03:53:03.443Z,100686.13
2023-03-29T03:55:10.381Z,100686.73
2023-03-29T03:57:16.983Z,100683.81
2023-03-29T03:59:24.180Z,100688.22
2023-03-29T04:01:30.587Z,100691.14
2023-03-29T04:03:38.112Z,100693.06
2023-03-29T04:05:45.266Z,100692.41
2023-03-29T04:07:52.146Z,100695.78
2023-03-29T04:09:58.644Z,100701.36
2023-03-29T04:12:05.600Z,100702.09
2023-03-29T04:14:12.544Z,100700.77
2023-03-29T04:16:19.347Z,100707.13
2023-03-29T04:18:26.975Z,100709.53
2023-03-29T04:20:34.176Z,100710.5
2023-03-29T04:22:41.062Z,100709.53
2023-03-29T04:24:47.536Z,100710.69
2023-03-29T04:26:54.548Z,100712.59
2023-03-29T04:29:01.316Z,100713.25
2023-03-29T04:31:08.164Z,100712.72
2023-03-29T04:33:15.183Z,100710.06
2023-03-29T04:35:21.504Z,100710.42
2023-03-29T04:37:28.831Z,100707.7
2023-03-29T04:39:36.007Z,100708.64
2023-03-29T04:41:42.211Z,100709.04
2023-03-29T04:43:48.935Z,100711.22
2023-03-29T04:45:55.536Z,100709.26
2023-03-29T04:48:02.052Z,100713.84
2023-03-29T04:50:08.666Z,100718.03
2023-03-29T04:52:15.104Z,100715.11
2023-03-29T04:54:21.452Z,100717.33
2023-03-29T04:56:30.477Z,100718.07
2023-03-29T04:58:37.249Z,100720.31
2023-03-29T05:00:44.102Z,100722.78
2023-03-29T05:02:50.310Z,100729.53
2023-03-29T05:04:56.902Z,100721.77
2023-03-29T05:07:03.269Z,100719.13
2023-03-29T05:09:09.730Z,100721.05
2023-03-29T05:11:16.158Z,100722.1
2023-03-29T05:13:22.546Z,100727.22
2023-03-29T05:15:28.868Z,100728.27
2023-03-29T05:17:35.937Z,100720.66
2023-03-29T05:19:42.198Z,100724.38
2023-03-29T05:21:48.987Z,100720.69
2023-03-29T05:23:55.743Z,100719.69
2023-03-29T05:26:02.083Z,100716.7
2023-03-29T05:28:08.460Z,100717.34
2023-03-29T05:30:15.114Z,100715.42
2023-03-29T05:32:22.009Z,100721.06
2023-03-29T05:34:28.893Z,100721.77
2023-03-29T05:36:35.292Z,100725.03
2023-03-29T05:38:42.381Z,100724.08
2023-03-29T05:40:48.846Z,100725.39
2023-03-29T05:42:56.267Z,100728.28
2023-03-29T05:45:02.796Z,100724.88
2023-03-29T05:47:09.991Z,100730.82
2023-03-29T05:49:16.736Z,100730.58
2023-03-29T05:51:23.892Z,100727.53
2023-03-29T05:53:31.153Z,100731.98
2023-03-29T05:55:37.604Z,100727.27
2023-03-29T05:57:44.606Z,100735.31
2023-03-29T05:59:51.129Z,100728.8
2023-03-29T06:01:57.462Z,100731.51
2023-03-29T06:04:06.657Z,100734.68
2023-03-29T06:06:14.078Z,100737.13
2023-03-29T06:08:21.125Z,100740.25
2023-03-29T06:10:27.599Z,100737.37
2023-03-29T06:12:34.210Z,100731.49
2023-03-29T06:14:41.734Z,100730.41
2023-03-29T06:16:48.231Z,100736.93
2023-03-29T06:18:55.461Z,100736.97
2023-03-29T06:21:02.305Z,100729.78
2023-03-29T06:23:10.269Z,100730.54
2023-03-29T06:25:17.321Z,100731.42
2023-03-29T06:27:24.364Z,100733.66
2023-03-29T06:29:31.145Z,100725.81
2023-03-29T06:31:38.163Z,100736.3
2023-03-29T06:33:45.988Z,100732.52
2023-03-29T06:35:54.114Z,100729.69
2023-03-29T06:38:00.879Z,100730
2023-03-29T06:40:07.594Z,100737.31
2023-03-29T06:42:22.737Z,100741.66
2023-03-29T06:44:31.086Z,100747.27
2023-03-29T06:46:37.994Z,100751.69
2023-03-29T06:48:44.337Z,100749.14
2023-03-29T06:50:51.745Z,100743.34
2023-03-29T06:52:58.285Z,100747.54
2023-03-29T06:55:04.699Z,100752.34
2023-03-29T06:57:11.140Z,100749.37
2023-03-29T06:59:17.560Z,100749.73
2023-03-29T07:01:23.852Z,100751.73
2023-03-29T07:03:31.439Z,100757.03
2023-03-29T07:05:38.041Z,100756.52
2023-03-29T07:07:44.133Z,100749.73
2023-03-29T07:09:50.977Z,100750.89
2023-03-29T07:11:57.541Z,100752.16
2023-03-29T07:14:04.277Z,100751.84
2023-03-29T07:16:11.270Z,100753.56
2023-03-29T07:18:18.359Z,100748.73
2023-03-29T07:20:25.058Z,100752.57
2023-03-29T07:22:32.542Z,100750.67
2023-03-29T07:24:39.370Z,100746.48
2023-03-29T07:27:03.658Z,100749.17
2023-03-29T07:29:10.769Z,100749
2023-03-29T07:31:17.728Z,100744.67
2023-03-29T07:33:24.361Z,100746.4
2023-03-29T07:35:31.121Z,100752.3
2023-03-29T07:37:38.589Z,100747.91
2023-03-29T07:39:45.848Z,100745.81
2023-03-29T07:41:52.052Z,100743.88
2023-03-29T07:43:58.724Z,100743.04
2023-03-29T07:46:08.285Z,100741.3
2023-03-29T07:48:15.042Z,100744.2
2023-03-29T07:50:22.754Z,100747.24
2023-03-29T07:52:30.851Z,100743.14
2023-03-29T07:54:37.716Z,100739.32
2023-03-29T07:56:44.622Z,100738.19
2023-03-29T07:58:51.445Z,100738.56
2023-03-29T08:00:59.445Z,100735.33
2023-03-29T08:03:07.599Z,100735.85
2023-03-29T08:05:16.380Z,100734.81
2023-03-29T08:07:45.282Z,100730.55
2023-03-29T08:09:52.809Z,100729.1
2023-03-29T08:12:01.701Z,100731.08
2023-03-29T08:14:08.732Z,100725.58
2023-03-29T08:16:15.162Z,100725.72
2023-03-29T08:18:22.218Z,100726.13
2023-03-29T08:20:29.731Z,100726.77
2023-03-29T08:22:36.859Z,100723.11
2023-03-29T08:24:45.903Z,100718.18
2023-03-29T08:26:52.820Z,100714.88
2023-03-29T08:29:01.850Z,100713.83
2023-03-29T08:31:08.230Z,100716.88
2023-03-29T08:33:14.856Z,100713.81
2023-03-29T08:35:21.065Z,100714.92
2023-03-29T08:37:27.265Z,100708.64
2023-03-29T08:39:36.161Z,100708.81
2023-03-29T08:41:42.500Z,100708.8
2023-03-29T08:43:49.388Z,100709.88
2023-03-29T08:45:55.631Z,100709.59
2023-03-29T08:48:01.875Z,100704.67
2023-03-29T08:50:08.605Z,100708.63
2023-03-29T08:52:15.018Z,100704.02
2023-03-29T08:54:20.992Z,100706.68
2023-03-29T08:56:27.285Z,100708.52
2023-03-29T08:58:36.286Z,100708.03
2023-03-29T09:00:42.617Z,100707.32
2023-03-29T09:02:49.397Z,100709.77
2023-03-29T09:04:56.016Z,100704.73
2023-03-29T09:07:02.349Z,100708.2
2023-03-29T09:09:08.782Z,100704.23
2023-03-29T09:11:14.912Z,100698.19
2023-03-29T09:13:23.513Z,100700.59
2023-03-29T09:15:29.866Z,100700.13
2023-03-29T09:17:36.472Z,100699.84
2023-03-29T09:19:43.904Z,100691.41
2023-03-29T09:21:50.637Z,100694.66
2023-03-29T09:23:57.392Z,100693.21
2023-03-29T09:26:03.818Z,100683.52
2023-03-29T09:28:09.991Z,100695.84
2023-03-29T09:30:16.585Z,100691.48
2023-03-29T09:32:26.780Z,100686.78
2023-03-29T09:34:33.271Z,100677.26
2023-03-29T09:36:39.751Z,100682.25
2023-03-29T09:38:46.072Z,100686.98
2023-03-29T09:40:52.185Z,100678.16
2023-03-29T09:42:58.447Z,100672.17
2023-03-29T09:45:05.270Z,100677.03
2023-03-29T09:47:11.464Z,100673.45
2023-03-29T09:49:18.972Z,100668.81
2023-03-29T09:51:26.554Z,100663.59
2023-03-29T09:53:32.581Z,100661.77
2023-03-29T09:55:38.982Z,100669.33
2023-03-29T09:57:45.525Z,100665.73
2023-03-29T09:59:51.662Z,100663.71
2023-03-29T10:01:58.064Z,100662.44
2023-03-29T10:04:04.292Z,100654.45
2023-03-29T10:06:10.711Z,100651.59
2023-03-29T10:08:20.456Z,100650.9
2023-03-29T10:10:26.892Z,100652.3
2023-03-29T10:12:33.587Z,100652.3
2023-03-29T10:14:39.975Z,100649.21
2023-03-29T10:16:46.603Z,100636.16
2023-03-29T10:18:53.378Z,100649.63
2023-03-29T10:21:00.442Z,100641.86
2023-03-29T10:23:07.684Z,100640.55
2023-03-29T10:25:14.301Z,100649.31
2023-03-29T10:27:21.196Z,100645.59
2023-03-29T10:29:27.254Z,100647.92
2023-03-29T10:31:35.484Z,100647.65
2023-03-29T10:33:42.542Z,100647.58
2023-03-29T10:35:49.371Z,100636.44
2023-03-29T10:37:55.792Z,100641.41
2023-03-29T10:40:02.445Z,100644.38
2023-03-29T10:42:09.805Z,100644.5
2023-03-29T10:44:16.430Z,100634.42
2023-03-29T10:46:23.688Z,100639.75
2023-03-29T10:48:30.267Z,100636.7
2023-03-29T10:50:36.607Z,100630.26
2023-03-29T10:52:43.731Z,100641.83
2023-03-29T10:54:49.827Z,100628.95
2023-03-29T10:56:56.612Z,100635.58
2023-03-29T10:59:03.112Z,100629.23
2023-03-29T11:01:09.764Z,100626.73
2023-03-29T11:03:21.059Z,100630.33
2023-03-29T11:05:28.064Z,100621.88
2023-03-29T11:07:35.649Z,100622.31
2023-03-29T11:09:42.276Z,100620.61
2023-03-29T11:11:48.647Z,100622.75
2023-03-29T11:14:17.879Z,100617.5
2023-03-29T11:16:24.888Z,100618.42
2023-03-29T11:18:31.818Z,100608.19
2023-03-29T11:20:37.988Z,100612.17
2023-03-29T11:22:44.300Z,100609.57
2023-03-29T11:24:50.768Z,100607.08
2023-03-29T11:26:57.410Z,100602.63
2023-03-29T11:29:03.622Z,100606.32
2023-03-29T11:31:11.178Z,100609.89
2023-03-29T11:33:17.325Z,100604.14
2023-03-29T11:35:23.818Z,100597.36
2023-03-29T11:37:33.389Z,100593.59
2023-03-29T11:39:40.936Z,100585.02
2023-03-29T11:41:49.772Z,100586.73
2023-03-29T11:43:56.440Z,100585.44
2023-03-29T11:46:02.829Z,100584.65
2023-03-29T11:48:09.389Z,100581.53
2023-03-29T11:50:15.645Z,100583.93
2023-03-29T11:52:22.269Z,100579.75
2023-03-29T11:54:28.613Z,100579.18
2023-03-29T11:56:34.644Z,100575.94
2023-03-29T11:58:40.801Z,100569.06
2023-03-29T12:00:47.005Z,100559.5
2023-03-29T12:02:53.243Z,100558.8
2023-03-29T12:04:59.924Z,100564.05
2023-03-29T12:07:06.118Z,100565.16
2023-03-29T12:09:14.230Z,100561.63
2023-03-29T12:11:21.840Z,100557.84
2023-03-29T12:13:30.698Z,100556.69
2023-03-29T12:15:37.629Z,100554.17
2023-03-29T12:17:44.036Z,100557.48
2023-03-29T12:19:50.482Z,100549.93
2023-03-29T12:21:57.473Z,100548.45
2023-03-29T12:24:04.471Z,100546.48
2023-03-29T12:26:11.047Z,100544.35
2023-03-29T12:28:17.871Z,100542.7
2023-03-29T12:30:24.859Z,100544.44
2023-03-29T12:32:31.107Z,100553.49
2023-03-29T12:34:38.255Z,100552.35
2023-03-29T12:36:44.670Z,100549.98
2023-03-29T12:38:51.134Z,100548.14
2023-03-29T12:40:57.691Z,100552.27
2023-03-29T12:43:04.455Z,100553.16
2023-03-29T12:45:11.137Z,100544.78
2023-03-29T12:47:17.318Z,100538.22
2023-03-29T12:49:23.897Z,100546.73
2023-03-29T12:51:30.202Z,100546.39
2023-03-29T12:53:36.995Z,100546.31
2023-03-29T12:55:44.918Z,100538.73
2023-03-29T12:57:52.401Z,100542.34
2023-03-29T12:59:58.816Z,100546.58
2023-03-29T13:02:05.348Z,100547.31
2023-03-29T13:04:11.603Z,100531.64
2023-03-29T13:06:18.425Z,100535.09
2023-03-29T13:08:24.820Z,100531.81
2023-03-29T13:10:31.166Z,100532.56
2023-03-29T13:12:39.719Z,100530.34
2023-03-29T13:14:48.980Z,100530.42
2023-03-29T13:16:59.775Z,100533.16
2023-03-29T13:19:23.836Z,100535.83
2023-03-29T13:21:30.947Z,100536.14
2023-03-29T13:23:37.312Z,100531.6
2023-03-29T13:25:44.591Z,100520.44
2023-03-29T13:27:51.678Z,100519.17
2023-03-29T13:29:58.244Z,100519.15
2023-03-29T13:32:05.387Z,100515.35
2023-03-29T13:36:19.124Z,100516.19
2023-03-29T13:38:26.690Z,100508.58
2023-03-29T13:40:35.177Z,100507.1
2023-03-29T13:42:41.799Z,100506.13
2023-03-29T13:44:50.684Z,100510.38
2023-03-29T13:46:57.592Z,100505.4
2023-03-29T13:49:05.663Z,100507.56
2023-03-29T13:51:13.037Z,100501.56
2023-03-29T13:53:22.631Z,100495.88
2023-03-29T13:55:32.780Z,100493.44
2023-03-29T13:57:43.215Z,100487.38
2023-03-29T13:59:49.968Z,100492.11
2023-03-29T14:01:56.624Z,100486.77
2023-03-29T14:04:03.489Z,100494.47
2023-03-29T14:06:10.522Z,100488.63
2023-03-29T14:08:20.000Z,100484.49
2023-03-29T14:10:27.227Z,100484.93
2023-03-29T14:12:35.247Z,100485.42
2023-03-29T14:15:00.221Z,100481.59
2023-03-29T14:17:07.316Z,100480.02
2023-03-29T14:19:15.666Z,100479.61
2023-03-29T14:21:23.186Z,100476.92
2023-03-29T14:23:31.158Z,100472.76
2023-03-29T14:25:38.670Z,100472.31
2023-03-29T14:27:47.932Z,100474.34
2023-03-29T14:29:55.379Z,100473.48
2023-03-29T14:32:01.651Z,100477.73
2023-03-29T14:34:09.027Z,100475.44
2023-03-29T14:36:17.504Z,100475.39
2023-03-29T14:38:26.746Z,100472.56
2023-03-29T14:40:36.782Z,100472.78
2023-03-29T14:42:44.681Z,100474.36
2023-03-29T14:44:51.276Z,100470.96
2023-03-29T14:46:57.639Z,100471.58
2023-03-29T14:49:04.279Z,100466.65
2023-03-29T14:51:11.836Z,100466.22
2023-03-29T14:53:19.748Z,100466.3
2023-03-29T14:55:26.610Z,100465.75
2023-03-29T14:57:36.058Z,100466.87
2023-03-29T14:59:42.778Z,100461.64
2023-03-29T15:01:50.789Z,100466.53
2023-03-29T15:03:58.691Z,100466.3
2023-03-29T15:06:06.314Z,100460.63
2023-03-29T15:08:13.457Z,100459.36
2023-03-29T15:10:21.080Z,100457.12
2023-03-29T15:12:29.324Z,100458.48
2023-03-29T15:14:37.163Z,100453.35
2023-03-29T15:16:45.429Z,100452.86
2023-03-29T15:18:52.700Z,100456.45
2023-03-29T15:20:59.441Z,100455.13
2023-03-29T15:23:06.748Z,100452.97
2023-03-29T15:25:14.645Z,100452.77
2023-03-29T15:27:22.180Z,100449.2
2023-03-29T15:29:29.345Z,100450.39
2023-03-29T15:31:36.752Z,100447.34
2023-03-29T15:33:45.259Z,100451.72
2023-03-29T15:35:53.758Z,100452.24
2023-03-29T15:38:02.071Z,100443.8
2023-03-29T15:40:08.741Z,100445.52
2023-03-29T15:42:16.852Z,100451.3
2023-03-29T15:44:23.981Z,100441.33
2023-03-29T15:46:30.889Z,100447.39
2023-03-29T15:48:38.980Z,100446.6
2023-03-29T15:50:46.739Z,100443.2
2023-03-29T15:52:56.337Z,100445.52
2023-03-29T15:55:20.031Z,100441.53
2023-03-29T15:57:27.967Z,100434.23
2023-03-29T15:59:37.522Z,100435.17
2023-03-29T16:01:44.714Z,100435.79
2023-03-29T16:03:51.704Z,100432.23
2023-03-29T16:05:59.223Z,100430.7
2023-03-29T16:08:07.675Z,100429.34
2023-03-29T16:10:15.541Z,100429.64
2023-03-29T16:12:23.241Z,100431.32
2023-03-29T16:14:30.074Z,100429.3
2023-03-29T16:16:39.153Z,100427.19
2023-03-29T16:18:47.009Z,100424.17
2023-03-29T16:20:54.837Z,100428.73
2023-03-29T16:23:02.806Z,100426.14
2023-03-29T16:25:10.261Z,100432.66
2023-03-29T16:27:18.415Z,100431.32
2023-03-29T16:29:25.824Z,100434.59
2023-03-29T16:31:33.098Z,100429.9
2023-03-29T16:33:40.508Z,100422.75
2023-03-29T16:35:48.248Z,100423.48
2023-03-29T16:37:55.718Z,100418.02
2023-03-29T16:40:03.638Z,100413.66
2023-03-29T16:42:11.661Z,100413.63
2023-03-29T16:44:23.694Z,100411.17
2023-03-29T16:46:32.476Z,100412.24
2023-03-29T16:48:40.949Z,100412.14
2023-03-29T16:50:48.840Z,100415.13
2023-03-29T16:52:58.759Z,100413.19
2023-03-29T16:55:23.327Z,100409.31
2023-03-29T16:57:31.926Z,100411.82
2023-03-29T16:59:40.263Z,100404.41
2023-03-29T17:01:48.550Z,100412.77
2023-03-29T17:03:56.773Z,100406.59
2023-03-29T17:06:07.013Z,100405.44
2023-03-29T17:08:14.525Z,100407.39
2023-03-29T17:10:23.569Z,100407.22
2023-03-29T17:12:32.591Z,100404.55
2023-03-29T17:14:40.372Z,100408.66
2023-03-29T17:16:48.215Z,100408.7
2023-03-29T17:18:55.823Z,100405.22
2023-03-29T17:21:03.819Z,100407.22
2023-03-29T17:23:13.414Z,100410.06
2023-03-29T17:25:21.012Z,100409.23
2023-03-29T17:27:29.390Z,100408.84
2023-03-29T17:29:38.509Z,100410.05
2023-03-29T17:31:50.217Z,100406.52
2023-03-29T17:33:59.858Z,100407.53
2023-03-29T17:36:09.797Z,100409.68
2023-03-29T17:38:18.299Z,100415.72
2023-03-29T17:40:29.027Z,100414.17
2023-03-29T17:42:37.946Z,100414.34
2023-03-29T17:44:46.569Z,100420.06
2023-03-29T17:46:55.564Z,100417.61
2023-03-29T17:49:06.433Z,100421.05
2023-03-29T17:51:22.688Z,100419.48
2023-03-29T17:53:34.809Z,100423.39
2023-03-29T17:55:48.388Z,100419.28
2023-03-29T17:58:04.216Z,100421.16
2023-03-29T18:00:17.391Z,100425.91
2023-03-29T18:02:28.201Z,100427.9
2023-03-29T18:04:37.787Z,100430.09
2023-03-29T18:06:49.677Z,100426.3
2023-03-29T18:08:58.676Z,100427.63
2023-03-29T18:11:08.303Z,100433.31
2023-03-29T18:13:18.995Z,100437.77
2023-03-29T18:15:31.067Z,100436.59
2023-03-29T18:17:44.138Z,100436.18
2023-03-29T18:19:54.524Z,100430.48
2023-03-29T18:22:03.973Z,100431.55
2023-03-29T18:24:12.614Z,100431.2
2023-03-29T18:26:24.957Z,100428.95
2023-03-29T18:28:36.797Z,100425.94
2023-03-29T18:30:49.903Z,100425.72
2023-03-29T18:33:02.153Z,100424.36
2023-03-29T18:35:13.042Z,100418.69
2023-03-29T18:37:23.832Z,100417.33
2023-03-29T18:39:43.225Z,100413.48
2023-03-29T18:41:52.783Z,100416.85
2023-03-29T18:44:17.163Z,100412.75
2023-03-29T18:46:25.784Z,100409.8
2023-03-29T18:48:39.631Z,100411.23
2023-03-29T18:50:52.825Z,100411.03
2023-03-29T18:53:03.389Z,100413.98
2023-03-29T18:55:14.180Z,100415.32
2023-03-29T18:57:26.972Z,100413.67
2023-03-29T18:59:39.415Z,100418.34
2023-03-29T19:01:48.704Z,100417.34
2023-03-29T19:04:00.196Z,100424.94
2023-03-29T19:06:11.941Z,100426.88
2023-03-29T19:08:22.855Z,100424.27
2023-03-29T19:10:32.942Z,100417.5
2023-03-29T19:12:47.955Z,100418.08
2023-03-29T19:14:58.830Z,100421.87
2023-03-29T19:17:15.206Z,100424.07
2023-03-29T19:19:28.052Z,100427.63
2023-03-29T19:21:39.121Z,100427.47
2023-03-29T19:23:52.269Z,100425.08
2023-03-29T19:26:04.772Z,100421.34
2023-03-29T19:28:19.100Z,100423.04
2023-03-29T19:30:31.056Z,100420.6
2023-03-29T19:32:45.081Z,100417.31
2023-03-29T19:34:55.927Z,100423.31
2023-03-29T19:37:06.683Z,100429.92
2023-03-29T19:39:16.070Z,100421.11
2023-03-29T19:41:28.962Z,100415.97
2023-03-29T19:43:38.665Z,100415.08
2023-03-29T19:45:47.874Z,100417.52
2023-03-29T19:47:57.466Z,100416.19
2023-03-29T19:50:13.076Z,100415.78
2023-03-29T19:52:22.352Z,100415.41
2023-03-29T19:54:38.588Z,100412.33
2023-03-29T19:56:53.251Z,100410.92
2023-03-29T19:59:02.880Z,100405.77
2023-03-29T20:01:13.985Z,100405.92
2023-03-29T20:03:22.814Z,100403.1
2023-03-29T20:05:32.381Z,100398.54
2023-03-29T20:07:42.939Z,100396.16
2023-03-29T20:09:53.258Z,100397.29
2023-03-29T20:12:01.675Z,100398.42
2023-03-29T20:14:12.241Z,100388.3
2023-03-29T20:16:21.335Z,100392.64
2023-03-29T20:18:29.254Z,100383.88
2023-03-29T20:20:39.797Z,100382.72
2023-03-29T20:22:49.765Z,100379.36
2023-03-29T20:24:57.609Z,100376.52
2023-03-29T20:27:06.105Z,100370.28
2023-03-29T20:29:13.670Z,100369.72
2023-03-29T20:31:22.520Z,100364.73
2023-03-29T20:33:31.007Z,100363.81
2023-03-29T20:35:39.426Z,100360.32
2023-03-29T20:37:47.377Z,100354.33
2023-03-29T20:39:54.039Z,100352.8
2023-03-29T20:42:01.519Z,100350.21
2023-03-29T20:44:09.148Z,100355.23
2023-03-29T20:46:16.783Z,100344.66
2023-03-29T20:48:23.955Z,100339.86
2023-03-29T20:50:31.102Z,100340.27
2023-03-29T20:52:38.388Z,100338.11
2023-03-29T20:54:45.673Z,100335.09
2023-03-29T20:56:52.654Z,100333.65
2023-03-29T20:59:00.516Z,100333.07
2023-03-29T21:01:08.284Z,100329.52
2023-03-29T21:03:15.809Z,100331.83
2023-03-29T21:05:23.003Z,100333.66
2023-03-29T21:07:29.338Z,100339.73
2023-03-29T21:09:36.660Z,100339.47
2023-03-29T21:11:43.796Z,100339.8
2023-03-29T21:13:50.630Z,100339.58
2023-03-29T21:15:58.145Z,100336.09
2023-03-29T21:18:05.522Z,100335.34
2023-03-29T21:20:12.638Z,100334.23
2023-03-29T21:22:21.458Z,100331.48
2023-03-29T21:24:28.421Z,100331.3
2023-03-29T21:26:34.893Z,100338.09
2023-03-29T21:28:44.434Z,100333.47
2023-03-29T21:30:51.811Z,100333.52
2023-03-29T21:32:59.018Z,100333.96
2023-03-29T21:35:07.905Z,100337.02
2023-03-29T21:37:17.327Z,100338.49
2023-03-29T21:39:24.236Z,100335.4
2023-03-29T21:41:30.999Z,100333.55
2023-03-29T21:43:38.305Z,100331.5
2023-03-29T21:45:44.997Z,100332.3
2023-03-29T21:47:52.590Z,100328.22
2023-03-29T21:50:01.142Z,100325.42
2023-03-29T21:52:08.057Z,100332.53
2023-03-29T21:54:15.477Z,100330.5
2023-03-29T21:56:24.884Z,100329.64
2023-03-29T21:58:33.148Z,100327.7
2023-03-29T22:00:40.437Z,100320.45
2023-03-29T22:02:47.900Z,100320.58
2023-03-29T22:04:54.817Z,100317.29
2023-03-29T22:07:01.893Z,100313.08
2023-03-29T22:09:09.251Z,100314.7
2023-03-29T22:11:16.104Z,100309.16
2023-03-29T22:13:22.459Z,100307.06
2023-03-29T22:15:29.248Z,100308.08
2023-03-29T22:17:35.981Z,100310.83
2023-03-29T22:19:43.133Z,100311.61
2023-03-29T22:21:49.998Z,100311.63
2023-03-29T22:23:56.595Z,100311.95
2023-03-29T22:26:02.990Z,100308.7
2023-03-29T22:28:09.227Z,100304.03
2023-03-29T22:30:15.612Z,100297.5
2023-03-29T22:32:22.275Z,100295.27
2023-03-29T22:34:29.795Z,100298.66
2023-03-29T22:36:50.631Z,100297.2
2023-03-29T22:38:57.290Z,100299.55
2023-03-29T22:41:04.804Z,100302.83
2023-03-29T22:43:11.590Z,100296.95
2023-03-29T22:45:18.241Z,100294.94
2023-03-29T22:47:25.843Z,100292.09
2023-03-29T22:49:32.198Z,100293.64
2023-03-29T22:51:39.085Z,100292.86
2023-03-29T22:53:45.914Z,100285.59
2023-03-29T22:55:52.297Z,100280.86
2023-03-29T22:57:59.151Z,100269.29
2023-03-29T23:00:08.255Z,100264.42
2023-03-29T23:02:15.334Z,100266.05
2023-03-29T23:04:23.139Z,100264
2023-03-29T23:06:30.522Z,100260.13
2023-03-29T23:08:37.428Z,100253.7
2023-03-29T23:10:44.104Z,100257.52
2023-03-29T23:12:51.527Z,100263.35
2023-03-29T23:14:58.533Z,100263.45
2023-03-29T23:17:04.811Z,100261.97
2023-03-29T23:19:12.513Z,100267.63
2023-03-29T23:21:19.171Z,100272.09
2023-03-29T23:23:25.804Z,100273.38
2023-03-29T23:25:32.664Z,100268.5
2023-03-29T23:27:39.615Z,100272
2023-03-29T23:29:45.954Z,100261.63
2023-03-29T23:31:53.315Z,100260.78
2023-03-29T23:34:00.186Z,100265.52
2023-03-29T23:36:07.617Z,100258.28
2023-03-29T23:38:14.645Z,100251.73
2023-03-29T23:40:21.551Z,100247.73
2023-03-29T23:42:28.242Z,100242.4
2023-03-29T23:44:37.198Z,100240.42
2023-03-29T23:46:43.595Z,100244.83
2023-03-29T23:48:50.245Z,100244.19
2023-03-29T23:50:56.639Z,100244.23
2023-03-29T23:53:03.515Z,100239.65
2023-03-29T23:55:10.314Z,100235.77
2023-03-29T23:57:16.838Z,100232.16
2023-03-29T23:59:23.984Z,100232.66
